sensor_id;sensor_type;location;lat;lon;timestamp;P1;durP1;ratioP1;P2;durP2;ratioP2
21955;SDS011;11142;49.930;8.606;2024-03-02T00:02:00;13.50;;;7.25;;
21955;SDS011;11142;49.930;8.606;2024-03-02T00:04:29;19.83;;;7.82;;
21955;SDS011;11142;49.930;8.606;2024-03-02T00:06:57;14.13;;;7.43;;
21955;SDS011;11142;49.930;8.606;2024-03-02T00:09:25;13.32;;;7.93;;
21955;SDS011;11142;49.930;8.606;2024-03-02T00:11:53;12.85;;;7.28;;
21955;SDS011;11142;49.930;8.606;2024-03-02T00:14:21;14.90;;;8.00;;
21955;SDS011;11142;49.930;8.606;2024-03-02T00:16:50;11.13;;;6.95;;
21955;SDS011;11142;49.930;8.606;2024-03-02T00:19:19;18.48;;;7.97;;
21955;SDS011;11142;49.930;8.606;2024-03-02T00:21:49;14.35;;;8.30;;
21955;SDS011;11142;49.930;8.606;2024-03-02T00:24:21;14.13;;;8.13;;
21955;SDS011;11142;49.930;8.606;2024-03-02T00:26:59;17.02;;;8.95;;
21955;SDS011;11142;49.930;8.606;2024-03-02T00:29:27;16.40;;;8.75;;
21955;SDS011;11142;49.930;8.606;2024-03-02T00:31:56;12.00;;;7.25;;
21955;SDS011;11142;49.930;8.606;2024-03-02T00:34:24;16.92;;;8.63;;
21955;SDS011;11142;49.930;8.606;2024-03-02T00:36:54;15.82;;;8.13;;
21955;SDS011;11142;49.930;8.606;2024-03-02T00:39:26;14.68;;;8.05;;
21955;SDS011;11142;49.930;8.606;2024-03-02T00:41:54;15.40;;;7.97;;
21955;SDS011;11142;49.930;8.606;2024-03-02T00:44:23;17.10;;;9.07;;
21955;SDS011;11142;49.930;8.606;2024-03-02T00:46:57;18.88;;;8.95;;
21955;SDS011;11142;49.930;8.606;2024-03-02T00:49:27;14.45;;;8.77;;
21955;SDS011;11142;49.930;8.606;2024-03-02T00:51:56;17.27;;;8.77;;
21955;SDS011;11142;49.930;8.606;2024-03-02T00:54:25;16.40;;;9.15;;
21955;SDS011;11142;49.930;8.606;2024-03-02T00:56:55;19.92;;;10.18;;
21955;SDS011;11142;49.930;8.606;2024-03-02T00:59:24;17.30;;;10.35;;
21955;SDS011;11142;49.930;8.606;2024-03-02T01:01:53;19.45;;;9.52;;
21955;SDS011;11142;49.930;8.606;2024-03-02T01:04:21;16.88;;;9.23;;
21955;SDS011;11142;49.930;8.606;2024-03-02T01:06:49;16.10;;;9.07;;
21955;SDS011;11142;49.930;8.606;2024-03-02T01:09:19;17.08;;;8.95;;
21955;SDS011;11142;49.930;8.606;2024-03-02T01:11:48;20.45;;;10.07;;
21955;SDS011;11142;49.930;8.606;2024-03-02T01:14:16;16.02;;;8.73;;
21955;SDS011;11142;49.930;8.606;2024-03-02T01:16:44;19.42;;;9.95;;
21955;SDS011;11142;49.930;8.606;2024-03-02T01:19:12;18.85;;;10.02;;
21955;SDS011;11142;49.930;8.606;2024-03-02T01:21:41;18.15;;;9.25;;
21955;SDS011;11142;49.930;8.606;2024-03-02T01:24:09;17.00;;;8.45;;
21955;SDS011;11142;49.930;8.606;2024-03-02T01:26:39;13.70;;;7.32;;
21955;SDS011;11142;49.930;8.606;2024-03-02T01:29:07;16.23;;;8.70;;
21955;SDS011;11142;49.930;8.606;2024-03-02T01:31:35;17.08;;;9.45;;
21955;SDS011;11142;49.930;8.606;2024-03-02T01:34:03;17.70;;;8.88;;
21955;SDS011;11142;49.930;8.606;2024-03-02T01:36:31;18.40;;;9.50;;
21955;SDS011;11142;49.930;8.606;2024-03-02T01:39:00;14.20;;;8.35;;
21955;SDS011;11142;49.930;8.606;2024-03-02T01:41:28;12.57;;;7.85;;
21955;SDS011;11142;49.930;8.606;2024-03-02T01:43:58;13.55;;;8.00;;
21955;SDS011;11142;49.930;8.606;2024-03-02T01:46:25;16.05;;;8.30;;
21955;SDS011;11142;49.930;8.606;2024-03-02T01:48:54;16.33;;;8.77;;
21955;SDS011;11142;49.930;8.606;2024-03-02T01:51:22;15.95;;;8.27;;
21955;SDS011;11142;49.930;8.606;2024-03-02T01:53:50;15.10;;;8.52;;
21955;SDS011;11142;49.930;8.606;2024-03-02T01:56:18;18.30;;;9.15;;
21955;SDS011;11142;49.930;8.606;2024-03-02T01:58:46;16.70;;;8.43;;
21955;SDS011;11142;49.930;8.606;2024-03-02T02:01:15;18.85;;;9.30;;
21955;SDS011;11142;49.930;8.606;2024-03-02T02:03:43;15.38;;;8.80;;
21955;SDS011;11142;49.930;8.606;2024-03-02T02:06:14;16.90;;;9.65;;
21955;SDS011;11142;49.930;8.606;2024-03-02T02:08:42;19.50;;;9.93;;
21955;SDS011;11142;49.930;8.606;2024-03-02T02:11:12;23.63;;;10.50;;
21955;SDS011;11142;49.930;8.606;2024-03-02T02:13:42;23.17;;;10.20;;
21955;SDS011;11142;49.930;8.606;2024-03-02T02:16:11;22.45;;;10.65;;
21955;SDS011;11142;49.930;8.606;2024-03-02T02:18:40;23.95;;;10.60;;
21955;SDS011;11142;49.930;8.606;2024-03-02T02:21:08;22.67;;;10.45;;
21955;SDS011;11142;49.930;8.606;2024-03-02T02:23:38;20.25;;;9.30;;
21955;SDS011;11142;49.930;8.606;2024-03-02T02:26:06;21.83;;;10.75;;
21955;SDS011;11142;49.930;8.606;2024-03-02T02:28:34;17.05;;;9.35;;
21955;SDS011;11142;49.930;8.606;2024-03-02T02:31:02;20.27;;;9.77;;
21955;SDS011;11142;49.930;8.606;2024-03-02T02:33:38;21.75;;;10.88;;
21955;SDS011;11142;49.930;8.606;2024-03-02T02:36:09;22.33;;;11.00;;
21955;SDS011;11142;49.930;8.606;2024-03-02T02:38:40;21.83;;;11.10;;
21955;SDS011;11142;49.930;8.606;2024-03-02T02:41:11;22.45;;;10.68;;
21955;SDS011;11142;49.930;8.606;2024-03-02T02:43:39;21.70;;;10.85;;
21955;SDS011;11142;49.930;8.606;2024-03-02T02:46:07;23.17;;;10.48;;
21955;SDS011;11142;49.930;8.606;2024-03-02T02:48:36;24.55;;;11.95;;
21955;SDS011;11142;49.930;8.606;2024-03-02T02:51:04;28.58;;;12.07;;
21955;SDS011;11142;49.930;8.606;2024-03-02T02:53:32;25.73;;;12.45;;
21955;SDS011;11142;49.930;8.606;2024-03-02T02:56:04;25.55;;;12.63;;
21955;SDS011;11142;49.930;8.606;2024-03-02T02:58:32;23.88;;;11.57;;
21955;SDS011;11142;49.930;8.606;2024-03-02T03:01:00;28.20;;;11.90;;
21955;SDS011;11142;49.930;8.606;2024-03-02T03:03:29;24.67;;;11.77;;
21955;SDS011;11142;49.930;8.606;2024-03-02T03:05:58;30.83;;;13.38;;
21955;SDS011;11142;49.930;8.606;2024-03-02T03:08:28;26.35;;;12.13;;
21955;SDS011;11142;49.930;8.606;2024-03-02T03:10:56;26.10;;;12.25;;
21955;SDS011;11142;49.930;8.606;2024-03-02T03:13:26;28.00;;;12.68;;
21955;SDS011;11142;49.930;8.606;2024-03-02T03:15:56;24.75;;;12.65;;
21955;SDS011;11142;49.930;8.606;2024-03-02T03:18:25;21.27;;;11.18;;
21955;SDS011;11142;49.930;8.606;2024-03-02T03:20:53;25.02;;;12.10;;
21955;SDS011;11142;49.930;8.606;2024-03-02T03:23:21;25.45;;;11.98;;
21955;SDS011;11142;49.930;8.606;2024-03-02T03:25:52;25.48;;;12.32;;
21955;SDS011;11142;49.930;8.606;2024-03-02T03:28:20;26.30;;;12.20;;
21955;SDS011;11142;49.930;8.606;2024-03-02T03:30:49;21.30;;;11.32;;
21955;SDS011;11142;49.930;8.606;2024-03-02T03:33:17;29.58;;;12.60;;
21955;SDS011;11142;49.930;8.606;2024-03-02T03:35:45;25.20;;;12.50;;
21955;SDS011;11142;49.930;8.606;2024-03-02T03:38:16;26.38;;;12.75;;
21955;SDS011;11142;49.930;8.606;2024-03-02T03:40:45;28.40;;;12.02;;
21955;SDS011;11142;49.930;8.606;2024-03-02T03:43:15;32.33;;;12.75;;
21955;SDS011;11142;49.930;8.606;2024-03-02T03:45:43;29.17;;;13.02;;
21955;SDS011;11142;49.930;8.606;2024-03-02T03:48:13;25.55;;;12.55;;
21955;SDS011;11142;49.930;8.606;2024-03-02T03:50:41;27.42;;;13.02;;
21955;SDS011;11142;49.930;8.606;2024-03-02T03:53:08;29.27;;;13.80;;
21955;SDS011;11142;49.930;8.606;2024-03-02T03:55:36;29.42;;;13.00;;
21955;SDS011;11142;49.930;8.606;2024-03-02T03:58:04;26.90;;;12.95;;
21955;SDS011;11142;49.930;8.606;2024-03-02T04:00:32;31.00;;;14.32;;
21955;SDS011;11142;49.930;8.606;2024-03-02T04:03:00;34.67;;;14.07;;
21955;SDS011;11142;49.930;8.606;2024-03-02T04:05:32;25.95;;;12.98;;
21955;SDS011;11142;49.930;8.606;2024-03-02T04:08:00;32.67;;;13.32;;
21955;SDS011;11142;49.930;8.606;2024-03-02T04:10:28;30.35;;;13.18;;
21955;SDS011;11142;49.930;8.606;2024-03-02T04:12:56;34.22;;;13.27;;
21955;SDS011;11142;49.930;8.606;2024-03-02T04:15:24;31.92;;;12.63;;
21955;SDS011;11142;49.930;8.606;2024-03-02T04:17:52;25.60;;;12.43;;
21955;SDS011;11142;49.930;8.606;2024-03-02T04:20:21;28.35;;;13.07;;
21955;SDS011;11142;49.930;8.606;2024-03-02T04:22:53;30.02;;;14.15;;
21955;SDS011;11142;49.930;8.606;2024-03-02T04:25:21;27.65;;;13.45;;
21955;SDS011;11142;49.930;8.606;2024-03-02T04:27:50;36.38;;;14.18;;
21955;SDS011;11142;49.930;8.606;2024-03-02T04:30:18;31.75;;;13.75;;
21955;SDS011;11142;49.930;8.606;2024-03-02T04:32:47;32.45;;;14.55;;
21955;SDS011;11142;49.930;8.606;2024-03-02T04:35:16;24.75;;;13.13;;
21955;SDS011;11142;49.930;8.606;2024-03-02T04:37:44;27.73;;;12.90;;
21955;SDS011;11142;49.930;8.606;2024-03-02T04:40:13;26.75;;;12.18;;
21955;SDS011;11142;49.930;8.606;2024-03-02T04:42:42;27.65;;;12.88;;
21955;SDS011;11142;49.930;8.606;2024-03-02T04:45:10;25.98;;;12.63;;
21955;SDS011;11142;49.930;8.606;2024-03-02T04:47:38;32.92;;;13.23;;
21955;SDS011;11142;49.930;8.606;2024-03-02T04:50:06;24.38;;;11.88;;
21955;SDS011;11142;49.930;8.606;2024-03-02T04:52:36;26.23;;;12.23;;
21955;SDS011;11142;49.930;8.606;2024-03-02T04:55:04;25.85;;;12.45;;
21955;SDS011;11142;49.930;8.606;2024-03-02T04:57:57;24.67;;;12.25;;
21955;SDS011;11142;49.930;8.606;2024-03-02T05:00:25;32.58;;;14.10;;
21955;SDS011;11142;49.930;8.606;2024-03-02T05:02:59;30.05;;;14.07;;
21955;SDS011;11142;49.930;8.606;2024-03-02T05:05:28;27.92;;;13.88;;
21955;SDS011;11142;49.930;8.606;2024-03-02T05:07:55;36.42;;;15.23;;
21955;SDS011;11142;49.930;8.606;2024-03-02T05:10:23;31.98;;;14.25;;
21955;SDS011;11142;49.930;8.606;2024-03-02T05:12:51;40.20;;;15.65;;
21955;SDS011;11142;49.930;8.606;2024-03-02T05:15:28;33.53;;;14.68;;
21955;SDS011;11142;49.930;8.606;2024-03-02T05:17:56;34.47;;;15.45;;
21955;SDS011;11142;49.930;8.606;2024-03-02T05:20:26;35.25;;;15.43;;
21955;SDS011;11142;49.930;8.606;2024-03-02T05:22:53;37.13;;;15.35;;
21955;SDS011;11142;49.930;8.606;2024-03-02T05:25:21;34.45;;;14.82;;
21955;SDS011;11142;49.930;8.606;2024-03-02T05:27:49;32.10;;;13.05;;
21955;SDS011;11142;49.930;8.606;2024-03-02T05:30:18;34.45;;;15.18;;
21955;SDS011;11142;49.930;8.606;2024-03-02T05:32:47;34.60;;;15.32;;
21955;SDS011;11142;49.930;8.606;2024-03-02T05:35:18;32.13;;;14.13;;
21955;SDS011;11142;49.930;8.606;2024-03-02T05:37:46;37.88;;;16.02;;
21955;SDS011;11142;49.930;8.606;2024-03-02T05:40:14;34.22;;;14.10;;
21955;SDS011;11142;49.930;8.606;2024-03-02T05:42:43;27.75;;;13.20;;
21955;SDS011;11142;49.930;8.606;2024-03-02T05:45:11;31.55;;;14.25;;
21955;SDS011;11142;49.930;8.606;2024-03-02T05:47:43;34.03;;;15.77;;
21955;SDS011;11142;49.930;8.606;2024-03-02T05:50:15;32.30;;;15.00;;
21955;SDS011;11142;49.930;8.606;2024-03-02T05:52:43;42.28;;;14.82;;
21955;SDS011;11142;49.930;8.606;2024-03-02T05:55:11;35.28;;;15.35;;
21955;SDS011;11142;49.930;8.606;2024-03-02T05:57:40;32.80;;;14.27;;
21955;SDS011;11142;49.930;8.606;2024-03-02T06:00:22;33.08;;;15.00;;
21955;SDS011;11142;49.930;8.606;2024-03-02T06:02:51;30.25;;;14.00;;
21955;SDS011;11142;49.930;8.606;2024-03-02T06:05:21;32.70;;;14.57;;
21955;SDS011;11142;49.930;8.606;2024-03-02T06:07:52;35.60;;;15.50;;
21955;SDS011;11142;49.930;8.606;2024-03-02T06:10:20;30.85;;;13.88;;
21955;SDS011;11142;49.930;8.606;2024-03-02T06:12:48;33.00;;;13.73;;
21955;SDS011;11142;49.930;8.606;2024-03-02T06:15:17;36.55;;;14.93;;
21955;SDS011;11142;49.930;8.606;2024-03-02T06:17:48;35.97;;;15.38;;
21955;SDS011;11142;49.930;8.606;2024-03-02T06:20:16;38.65;;;15.43;;
21955;SDS011;11142;49.930;8.606;2024-03-02T06:22:47;33.08;;;14.90;;
21955;SDS011;11142;49.930;8.606;2024-03-02T06:25:16;33.50;;;15.07;;
21955;SDS011;11142;49.930;8.606;2024-03-02T06:27:47;33.60;;;14.65;;
21955;SDS011;11142;49.930;8.606;2024-03-02T06:30:16;32.25;;;15.10;;
21955;SDS011;11142;49.930;8.606;2024-03-02T06:32:44;31.80;;;14.73;;
21955;SDS011;11142;49.930;8.606;2024-03-02T06:35:12;35.75;;;14.07;;
21955;SDS011;11142;49.930;8.606;2024-03-02T06:37:40;38.13;;;14.43;;
21955;SDS011;11142;49.930;8.606;2024-03-02T06:40:10;27.08;;;13.68;;
21955;SDS011;11142;49.930;8.606;2024-03-02T06:42:39;33.13;;;13.82;;
21955;SDS011;11142;49.930;8.606;2024-03-02T06:45:07;36.38;;;15.85;;
21955;SDS011;11142;49.930;8.606;2024-03-02T06:47:35;35.00;;;14.80;;
21955;SDS011;11142;49.930;8.606;2024-03-02T06:50:04;33.92;;;14.82;;
21955;SDS011;11142;49.930;8.606;2024-03-02T06:52:33;29.30;;;14.20;;
21955;SDS011;11142;49.930;8.606;2024-03-02T06:55:03;31.92;;;14.40;;
21955;SDS011;11142;49.930;8.606;2024-03-02T06:57:33;28.48;;;13.93;;
21955;SDS011;11142;49.930;8.606;2024-03-02T07:00:02;32.28;;;14.02;;
21955;SDS011;11142;49.930;8.606;2024-03-02T07:02:32;32.03;;;14.20;;
21955;SDS011;11142;49.930;8.606;2024-03-02T07:05:00;31.70;;;15.30;;
21955;SDS011;11142;49.930;8.606;2024-03-02T07:07:29;31.88;;;14.23;;
21955;SDS011;11142;49.930;8.606;2024-03-02T07:09:58;30.67;;;14.27;;
21955;SDS011;11142;49.930;8.606;2024-03-02T07:12:28;31.45;;;15.77;;
21955;SDS011;11142;49.930;8.606;2024-03-02T07:15:01;38.85;;;17.38;;
21955;SDS011;11142;49.930;8.606;2024-03-02T07:17:51;43.13;;;16.80;;
21955;SDS011;11142;49.930;8.606;2024-03-02T07:20:19;38.17;;;17.00;;
21955;SDS011;11142;49.930;8.606;2024-03-02T07:22:49;39.47;;;18.52;;
21955;SDS011;11142;49.930;8.606;2024-03-02T07:25:18;45.25;;;18.50;;
21955;SDS011;11142;49.930;8.606;2024-03-02T07:27:49;39.53;;;17.92;;
21955;SDS011;11142;49.930;8.606;2024-03-02T07:30:23;39.72;;;18.02;;
21955;SDS011;11142;49.930;8.606;2024-03-02T07:32:51;35.47;;;16.55;;
21955;SDS011;11142;49.930;8.606;2024-03-02T07:35:20;29.70;;;15.15;;
21955;SDS011;11142;49.930;8.606;2024-03-02T07:37:49;35.38;;;16.90;;
21955;SDS011;11142;49.930;8.606;2024-03-02T07:40:17;31.35;;;14.77;;
21955;SDS011;11142;49.930;8.606;2024-03-02T07:42:48;37.13;;;16.23;;
21955;SDS011;11142;49.930;8.606;2024-03-02T07:45:28;39.13;;;17.13;;
21955;SDS011;11142;49.930;8.606;2024-03-02T07:47:59;36.28;;;16.00;;
21955;SDS011;11142;49.930;8.606;2024-03-02T07:50:27;33.25;;;14.90;;
21955;SDS011;11142;49.930;8.606;2024-03-02T07:52:55;29.73;;;15.07;;
21955;SDS011;11142;49.930;8.606;2024-03-02T07:55:23;36.55;;;15.48;;
21955;SDS011;11142;49.930;8.606;2024-03-02T07:57:51;22.27;;;12.23;;
21955;SDS011;11142;49.930;8.606;2024-03-02T08:00:19;24.00;;;11.73;;
21955;SDS011;11142;49.930;8.606;2024-03-02T08:02:52;18.70;;;10.27;;
21955;SDS011;11142;49.930;8.606;2024-03-02T08:05:21;16.38;;;9.18;;
21955;SDS011;11142;49.930;8.606;2024-03-02T08:07:52;16.98;;;9.52;;
21955;SDS011;11142;49.930;8.606;2024-03-02T08:10:20;15.45;;;8.63;;
21955;SDS011;11142;49.930;8.606;2024-03-02T08:12:51;19.42;;;9.73;;
21955;SDS011;11142;49.930;8.606;2024-03-02T08:15:19;19.63;;;10.32;;
21955;SDS011;11142;49.930;8.606;2024-03-02T08:17:48;19.40;;;9.55;;
21955;SDS011;11142;49.930;8.606;2024-03-02T08:20:18;18.60;;;10.52;;
21955;SDS011;11142;49.930;8.606;2024-03-02T08:22:46;22.38;;;10.38;;
21955;SDS011;11142;49.930;8.606;2024-03-02T08:25:16;18.48;;;9.95;;
21955;SDS011;11142;49.930;8.606;2024-03-02T08:27:44;15.95;;;9.07;;
21955;SDS011;11142;49.930;8.606;2024-03-02T08:30:12;18.73;;;9.60;;
21955;SDS011;11142;49.930;8.606;2024-03-02T08:32:43;21.00;;;9.82;;
21955;SDS011;11142;49.930;8.606;2024-03-02T08:35:12;16.85;;;8.88;;
21955;SDS011;11142;49.930;8.606;2024-03-02T08:37:42;18.45;;;9.85;;
21955;SDS011;11142;49.930;8.606;2024-03-02T08:40:11;16.08;;;8.57;;
21955;SDS011;11142;49.930;8.606;2024-03-02T08:42:44;12.88;;;6.93;;
21955;SDS011;11142;49.930;8.606;2024-03-02T08:45:16;16.25;;;9.52;;
21955;SDS011;11142;49.930;8.606;2024-03-02T08:47:54;17.05;;;9.30;;
21955;SDS011;11142;49.930;8.606;2024-03-02T08:50:34;17.63;;;9.38;;
21955;SDS011;11142;49.930;8.606;2024-03-02T08:53:05;16.75;;;9.25;;
21955;SDS011;11142;49.930;8.606;2024-03-02T08:55:35;16.73;;;9.63;;
21955;SDS011;11142;49.930;8.606;2024-03-02T08:58:04;15.93;;;9.05;;
21955;SDS011;11142;49.930;8.606;2024-03-02T09:00:33;18.00;;;9.10;;
21955;SDS011;11142;49.930;8.606;2024-03-02T09:03:02;13.82;;;8.43;;
21955;SDS011;11142;49.930;8.606;2024-03-02T09:05:31;16.98;;;8.15;;
21955;SDS011;11142;49.930;8.606;2024-03-02T09:07:59;15.23;;;8.65;;
21955;SDS011;11142;49.930;8.606;2024-03-02T09:10:33;17.55;;;9.85;;
21955;SDS011;11142;49.930;8.606;2024-03-02T09:13:02;16.33;;;8.48;;
21955;SDS011;11142;49.930;8.606;2024-03-02T09:15:30;15.43;;;8.50;;
21955;SDS011;11142;49.930;8.606;2024-03-02T09:18:02;15.95;;;8.30;;
21955;SDS011;11142;49.930;8.606;2024-03-02T09:23:18;12.95;;;7.90;;
21955;SDS011;11142;49.930;8.606;2024-03-02T09:25:48;13.32;;;7.00;;
21955;SDS011;11142;49.930;8.606;2024-03-02T09:28:16;12.13;;;7.22;;
21955;SDS011;11142;49.930;8.606;2024-03-02T09:30:44;10.98;;;6.40;;
21955;SDS011;11142;49.930;8.606;2024-03-02T09:33:12;12.13;;;6.68;;
21955;SDS011;11142;49.930;8.606;2024-03-02T09:35:43;13.05;;;7.15;;
21955;SDS011;11142;49.930;8.606;2024-03-02T09:38:13;11.95;;;7.13;;
21955;SDS011;11142;49.930;8.606;2024-03-02T09:40:44;9.45;;;6.13;;
21955;SDS011;11142;49.930;8.606;2024-03-02T09:43:14;10.02;;;6.63;;
21955;SDS011;11142;49.930;8.606;2024-03-02T09:45:44;10.65;;;6.15;;
21955;SDS011;11142;49.930;8.606;2024-03-02T09:48:18;11.82;;;6.50;;
21955;SDS011;11142;49.930;8.606;2024-03-02T09:50:54;10.57;;;6.50;;
21955;SDS011;11142;49.930;8.606;2024-03-02T09:53:24;11.00;;;6.78;;
21955;SDS011;11142;49.930;8.606;2024-03-02T09:55:57;20.77;;;8.02;;
21955;SDS011;11142;49.930;8.606;2024-03-02T09:58:31;14.38;;;7.28;;
21955;SDS011;11142;49.930;8.606;2024-03-02T10:01:00;11.52;;;7.00;;
21955;SDS011;11142;49.930;8.606;2024-03-02T10:03:29;10.15;;;6.55;;
21955;SDS011;11142;49.930;8.606;2024-03-02T10:08:53;12.63;;;6.95;;
21955;SDS011;11142;49.930;8.606;2024-03-02T10:11:27;12.18;;;6.70;;
21955;SDS011;11142;49.930;8.606;2024-03-02T10:14:05;10.80;;;6.35;;
21955;SDS011;11142;49.930;8.606;2024-03-02T10:16:39;12.15;;;6.15;;
21955;SDS011;11142;49.930;8.606;2024-03-02T10:19:16;12.90;;;6.35;;
21955;SDS011;11142;49.930;8.606;2024-03-02T10:21:46;10.07;;;6.00;;
21955;SDS011;11142;49.930;8.606;2024-03-02T10:24:18;9.93;;;5.75;;
21955;SDS011;11142;49.930;8.606;2024-03-02T10:26:52;9.20;;;5.80;;
21955;SDS011;11142;49.930;8.606;2024-03-02T10:29:28;9.75;;;5.10;;
21955;SDS011;11142;49.930;8.606;2024-03-02T10:32:01;9.20;;;5.25;;
21955;SDS011;11142;49.930;8.606;2024-03-02T10:34:32;13.38;;;5.65;;
21955;SDS011;11142;49.930;8.606;2024-03-02T10:37:05;9.68;;;5.00;;
21955;SDS011;11142;49.930;8.606;2024-03-02T10:39:38;13.55;;;6.13;;
21955;SDS011;11142;49.930;8.606;2024-03-02T10:42:12;8.10;;;5.03;;
21955;SDS011;11142;49.930;8.606;2024-03-02T10:44:48;7.72;;;4.90;;
21955;SDS011;11142;49.930;8.606;2024-03-02T10:47:18;10.48;;;4.97;;
21955;SDS011;11142;49.930;8.606;2024-03-02T10:49:51;7.53;;;4.90;;
21955;SDS011;11142;49.930;8.606;2024-03-02T10:52:25;9.13;;;5.10;;
21955;SDS011;11142;49.930;8.606;2024-03-02T10:54:54;9.98;;;5.05;;
21955;SDS011;11142;49.930;8.606;2024-03-02T10:57:25;9.38;;;5.47;;
21955;SDS011;11142;49.930;8.606;2024-03-02T11:00:11;7.95;;;4.55;;
21955;SDS011;11142;49.930;8.606;2024-03-02T11:02:55;7.13;;;4.50;;
21955;SDS011;11142;49.930;8.606;2024-03-02T11:05:31;8.90;;;4.65;;
21955;SDS011;11142;49.930;8.606;2024-03-02T11:08:10;7.93;;;5.10;;
21955;SDS011;11142;49.930;8.606;2024-03-02T11:10:45;9.07;;;4.75;;
21955;SDS011;11142;49.930;8.606;2024-03-02T11:13:22;6.70;;;4.25;;
21955;SDS011;11142;49.930;8.606;2024-03-02T11:16:03;5.75;;;3.75;;
21955;SDS011;11142;49.930;8.606;2024-03-02T11:18:40;6.72;;;3.78;;
21955;SDS011;11142;49.930;8.606;2024-03-02T11:21:10;7.10;;;4.95;;
21955;SDS011;11142;49.930;8.606;2024-03-02T11:23:40;7.43;;;4.72;;
21955;SDS011;11142;49.930;8.606;2024-03-02T11:26:17;7.10;;;3.92;;
21955;SDS011;11142;49.930;8.606;2024-03-02T11:28:46;6.30;;;4.13;;
21955;SDS011;11142;49.930;8.606;2024-03-02T11:31:16;6.30;;;3.80;;
21955;SDS011;11142;49.930;8.606;2024-03-02T11:33:46;5.78;;;3.80;;
21955;SDS011;11142;49.930;8.606;2024-03-02T11:36:14;6.60;;;3.70;;
21955;SDS011;11142;49.930;8.606;2024-03-02T11:38:51;6.65;;;3.95;;
21955;SDS011;11142;49.930;8.606;2024-03-02T11:41:20;5.13;;;3.22;;
21955;SDS011;11142;49.930;8.606;2024-03-02T11:43:49;4.60;;;3.05;;
21955;SDS011;11142;49.930;8.606;2024-03-02T11:46:20;8.40;;;4.70;;
21955;SDS011;11142;49.930;8.606;2024-03-02T11:48:57;5.63;;;3.28;;
21955;SDS011;11142;49.930;8.606;2024-03-02T11:51:27;4.47;;;3.05;;
21955;SDS011;11142;49.930;8.606;2024-03-02T11:53:55;4.97;;;2.70;;
21955;SDS011;11142;49.930;8.606;2024-03-02T11:56:27;6.03;;;2.80;;
21955;SDS011;11142;49.930;8.606;2024-03-02T11:59:07;3.70;;;2.63;;
21955;SDS011;11142;49.930;8.606;2024-03-02T12:01:37;3.80;;;2.67;;
21955;SDS011;11142;49.930;8.606;2024-03-02T12:04:06;5.43;;;3.10;;
21955;SDS011;11142;49.930;8.606;2024-03-02T12:06:39;4.30;;;2.80;;
21955;SDS011;11142;49.930;8.606;2024-03-02T12:09:09;4.50;;;2.58;;
21955;SDS011;11142;49.930;8.606;2024-03-02T12:11:39;12.05;;;2.55;;
21955;SDS011;11142;49.930;8.606;2024-03-02T12:14:10;4.65;;;2.78;;
21955;SDS011;11142;49.930;8.606;2024-03-02T12:16:44;12.87;;;7.70;;
21955;SDS011;11142;49.930;8.606;2024-03-02T12:19:13;5.25;;;3.15;;
21955;SDS011;11142;49.930;8.606;2024-03-02T12:21:44;3.80;;;2.72;;
21955;SDS011;11142;49.930;8.606;2024-03-02T12:24:14;6.13;;;3.10;;
21955;SDS011;11142;49.930;8.606;2024-03-02T12:26:43;5.70;;;2.72;;
21955;SDS011;11142;49.930;8.606;2024-03-02T12:29:13;2.80;;;2.38;;
21955;SDS011;11142;49.930;8.606;2024-03-02T12:31:44;5.53;;;2.70;;
21955;SDS011;11142;49.930;8.606;2024-03-02T12:34:13;3.92;;;2.58;;
21955;SDS011;11142;49.930;8.606;2024-03-02T12:36:43;4.65;;;2.50;;
21955;SDS011;11142;49.930;8.606;2024-03-02T12:39:20;4.45;;;2.55;;
21955;SDS011;11142;49.930;8.606;2024-03-02T12:41:56;7.53;;;2.97;;
21955;SDS011;11142;49.930;8.606;2024-03-02T12:44:25;5.57;;;2.70;;
21955;SDS011;11142;49.930;8.606;2024-03-02T12:46:57;4.10;;;2.53;;
21955;SDS011;11142;49.930;8.606;2024-03-02T12:49:28;3.35;;;2.20;;
21955;SDS011;11142;49.930;8.606;2024-03-02T12:51:58;3.60;;;2.33;;
21955;SDS011;11142;49.930;8.606;2024-03-02T12:54:34;3.83;;;2.72;;
21955;SDS011;11142;49.930;8.606;2024-03-02T12:57:03;3.13;;;2.35;;
21955;SDS011;11142;49.930;8.606;2024-03-02T12:59:32;4.90;;;2.75;;
21955;SDS011;11142;49.930;8.606;2024-03-02T13:02:04;3.47;;;2.30;;
21955;SDS011;11142;49.930;8.606;2024-03-02T13:04:33;4.38;;;2.80;;
21955;SDS011;11142;49.930;8.606;2024-03-02T13:07:01;3.92;;;2.25;;
21955;SDS011;11142;49.930;8.606;2024-03-02T13:09:30;5.07;;;2.30;;
21955;SDS011;11142;49.930;8.606;2024-03-02T13:12:00;4.35;;;2.75;;
21955;SDS011;11142;49.930;8.606;2024-03-02T13:14:32;4.35;;;2.33;;
21955;SDS011;11142;49.930;8.606;2024-03-02T13:17:01;4.40;;;2.00;;
21955;SDS011;11142;49.930;8.606;2024-03-02T13:19:32;4.22;;;2.03;;
21955;SDS011;11142;49.930;8.606;2024-03-02T13:22:01;3.83;;;2.70;;
21955;SDS011;11142;49.930;8.606;2024-03-02T13:24:30;4.97;;;2.40;;
21955;SDS011;11142;49.930;8.606;2024-03-02T13:27:00;4.07;;;2.30;;
21955;SDS011;11142;49.930;8.606;2024-03-02T13:29:30;4.00;;;2.33;;
21955;SDS011;11142;49.930;8.606;2024-03-02T13:32:01;3.55;;;2.10;;
21955;SDS011;11142;49.930;8.606;2024-03-02T13:34:33;3.70;;;1.80;;
21955;SDS011;11142;49.930;8.606;2024-03-02T13:37:01;2.55;;;1.83;;
21955;SDS011;11142;49.930;8.606;2024-03-02T13:39:32;3.15;;;1.92;;
21955;SDS011;11142;49.930;8.606;2024-03-02T13:42:06;2.78;;;1.80;;
21955;SDS011;11142;49.930;8.606;2024-03-02T13:44:36;5.68;;;2.35;;
21955;SDS011;11142;49.930;8.606;2024-03-02T13:47:08;2.50;;;1.63;;
21955;SDS011;11142;49.930;8.606;2024-03-02T13:49:40;4.55;;;2.65;;
21955;SDS011;11142;49.930;8.606;2024-03-02T13:52:11;4.40;;;2.70;;
21955;SDS011;11142;49.930;8.606;2024-03-02T13:54:41;3.90;;;2.60;;
21955;SDS011;11142;49.930;8.606;2024-03-02T13:57:12;4.03;;;2.60;;
21955;SDS011;11142;49.930;8.606;2024-03-02T13:59:47;3.13;;;2.45;;
21955;SDS011;11142;49.930;8.606;2024-03-02T14:02:16;3.60;;;2.22;;
21955;SDS011;11142;49.930;8.606;2024-03-02T14:04:46;2.78;;;2.03;;
21955;SDS011;11142;49.930;8.606;2024-03-02T14:07:16;4.30;;;2.47;;
21955;SDS011;11142;49.930;8.606;2024-03-02T14:09:44;3.65;;;2.45;;
21955;SDS011;11142;49.930;8.606;2024-03-02T14:12:13;3.08;;;2.20;;
21955;SDS011;11142;49.930;8.606;2024-03-02T14:14:42;4.15;;;2.35;;
21955;SDS011;11142;49.930;8.606;2024-03-02T14:17:10;4.78;;;2.20;;
21955;SDS011;11142;49.930;8.606;2024-03-02T14:19:41;4.00;;;2.33;;
21955;SDS011;11142;49.930;8.606;2024-03-02T14:22:11;3.63;;;2.28;;
21955;SDS011;11142;49.930;8.606;2024-03-02T14:24:40;2.92;;;2.10;;
21955;SDS011;11142;49.930;8.606;2024-03-02T14:27:15;3.30;;;2.22;;
21955;SDS011;11142;49.930;8.606;2024-03-02T14:30:05;3.90;;;2.10;;
21955;SDS011;11142;49.930;8.606;2024-03-02T14:32:35;2.60;;;1.88;;
21955;SDS011;11142;49.930;8.606;2024-03-02T14:35:03;2.53;;;1.77;;
21955;SDS011;11142;49.930;8.606;2024-03-02T14:37:34;4.38;;;2.45;;
21955;SDS011;11142;49.930;8.606;2024-03-02T14:40:04;5.13;;;2.58;;
21955;SDS011;11142;49.930;8.606;2024-03-02T14:42:33;3.05;;;2.03;;
21955;SDS011;11142;49.930;8.606;2024-03-02T14:45:04;3.08;;;2.10;;
21955;SDS011;11142;49.930;8.606;2024-03-02T14:47:34;2.92;;;2.03;;
21955;SDS011;11142;49.930;8.606;2024-03-02T14:50:04;5.57;;;2.25;;
21955;SDS011;11142;49.930;8.606;2024-03-02T14:52:37;2.53;;;1.90;;
21955;SDS011;11142;49.930;8.606;2024-03-02T14:55:08;3.08;;;1.98;;
21955;SDS011;11142;49.930;8.606;2024-03-02T14:57:37;5.20;;;2.13;;